createdAt,value
2023-02-25T00:01:51.204Z,100316.84
2023-02-25T00:04:30.112Z,100297.97
2023-02-25T00:07:00.008Z,100311.00
2023-02-25T00:09:30.337Z,100336.78
2023-02-25T00:11:59.812Z,100362.66
2023-02-25T00:14:32.276Z,100309.94
2023-02-25T00:17:02.409Z,100345.53
2023-02-25T00:19:30.939Z,100317.22
2023-02-25T00:22:00.790Z,100352.69
2023-02-25T00:24:31.938Z,100335.19
2023-02-25T00:27:00.661Z,100334.31
2023-02-25T00:29:28.872Z,100302.53
2023-02-25T00:31:58.805Z,100337.06
2023-02-25T00:34:28.922Z,100321.34
2023-02-25T00:36:58.208Z,100319.47
2023-02-25T00:39:42.282Z,100305.00
2023-02-25T00:42:14.261Z,100349.97
2023-02-25T00:44:45.482Z,100332.88
2023-02-25T00:47:15.555Z,100334.34
2023-02-25T00:49:44.028Z,100362.97
2023-02-25T00:52:13.404Z,100357.88
2023-02-25T00:54:42.826Z,100346.78
2023-02-25T00:57:11.071Z,100334.63
2023-02-25T00:59:39.085Z,100349.44
2023-02-25T01:02:07.885Z,100364.13
2023-02-25T01:04:38.669Z,100365.75
2023-02-25T01:07:06.976Z,100362.41
2023-02-25T01:09:36.191Z,100353.19
2023-02-25T01:12:04.762Z,100361.78
2023-02-25T01:14:33.990Z,100357.44
2023-02-25T01:17:03.435Z,100353.97
2023-02-25T01:19:31.723Z,100378.91
2023-02-25T01:22:01.252Z,100348.72
2023-02-25T01:24:30.785Z,100374.50
2023-02-25T01:27:01.470Z,100383.75
2023-02-25T01:29:33.066Z,100383.06
2023-02-25T01:32:04.170Z,100391.81
2023-02-25T01:34:33.328Z,100377.81
2023-02-25T01:37:04.015Z,100400.25
2023-02-25T01:39:32.487Z,100397.00
2023-02-25T01:42:05.694Z,100378.06
2023-02-25T01:44:37.585Z,100413.88
2023-02-25T01:47:07.343Z,100419.81
2023-02-25T01:49:41.695Z,100438.84
2023-02-25T01:52:18.140Z,100439.00
2023-02-25T01:54:52.792Z,100413.88
2023-02-25T01:57:24.607Z,100451.06
2023-02-25T01:59:54.953Z,100427.53
2023-02-25T02:02:25.225Z,100446.59
2023-02-25T02:04:55.660Z,100432.03
2023-02-25T02:07:26.631Z,100448.41
2023-02-25T02:10:01.425Z,100417.97
2023-02-25T02:12:35.162Z,100442.31
2023-02-25T02:15:05.864Z,100434.72
2023-02-25T02:17:38.055Z,100421.88
2023-02-25T02:20:14.311Z,100430.75
2023-02-25T02:23:25.641Z,100437.81
2023-02-25T02:26:31.178Z,100465.56
2023-02-25T02:29:50.424Z,100430.75
2023-02-25T02:32:32.285Z,100456.06
2023-02-25T02:35:09.635Z,100430.91
2023-02-25T02:37:43.984Z,100463.56
2023-02-25T02:40:42.785Z,100425.56
2023-02-25T02:43:24.295Z,100425.56
2023-02-25T02:46:01.278Z,100474.03
2023-02-25T02:48:43.452Z,100435.94
2023-02-25T02:51:33.373Z,100446.47
2023-02-25T02:54:16.175Z,100468.94
2023-02-25T02:56:57.553Z,100421.31
2023-02-25T02:59:32.828Z,100448.38
2023-02-25T03:02:09.177Z,100455.16
2023-02-25T03:04:50.254Z,100419.00
2023-02-25T03:07:22.618Z,100467.19
2023-02-25T03:09:55.961Z,100478.53
2023-02-25T03:12:27.453Z,100465.59
2023-02-25T03:14:58.972Z,100498.47
2023-02-25T03:17:29.986Z,100486.28
2023-02-25T03:20:08.577Z,100469.97
2023-02-25T03:22:41.352Z,100463.09
2023-02-25T03:25:26.133Z,100482.34
2023-02-25T03:27:59.187Z,100519.63
2023-02-25T03:30:34.018Z,100512.13
2023-02-25T03:33:08.040Z,100491.44
2023-02-25T03:35:40.072Z,100491.44
2023-02-25T03:38:14.426Z,100470.66
2023-02-25T03:40:44.222Z,100481.06
2023-02-25T03:43:18.043Z,100454.28
2023-02-25T03:46:00.999Z,100469.03
2023-02-25T03:48:31.603Z,100428.31
2023-02-25T03:51:04.644Z,100450.78
2023-02-25T03:53:35.559Z,100439.56
2023-02-25T03:56:09.375Z,100436.97
2023-02-25T03:58:42.529Z,100484.53
2023-02-25T04:01:17.140Z,100458.28
2023-02-25T04:03:49.341Z,100461.88
2023-02-25T04:06:24.190Z,100465.28
2023-02-25T04:08:55.199Z,100488.66
2023-02-25T04:11:27.402Z,100455.03
2023-02-25T04:13:56.021Z,100471.47
2023-02-25T04:16:31.888Z,100444.53
2023-02-25T04:19:04.738Z,100461.06
2023-02-25T04:21:44.112Z,100486.22
2023-02-25T04:24:14.747Z,100464.53
2023-02-25T04:26:42.758Z,100490.25
2023-02-25T04:29:14.388Z,100486.81
2023-02-25T04:31:43.761Z,100501.03
2023-02-25T04:34:12.600Z,100504.63
2023-02-25T04:36:44.357Z,100509.16
2023-02-25T04:39:14.010Z,100480.66
2023-02-25T04:41:42.354Z,100519.69
2023-02-25T04:44:11.020Z,100485.84
2023-02-25T04:46:41.522Z,100487.66
2023-02-25T04:49:10.780Z,100476.22
2023-02-25T04:51:39.965Z,100471.09
2023-02-25T04:54:09.744Z,100489.38
2023-02-25T04:56:38.177Z,100481.59
2023-02-25T04:59:06.342Z,100503.34
2023-02-25T05:01:35.185Z,100479.94
2023-02-25T05:04:03.469Z,100513.78
2023-02-25T05:06:32.208Z,100507.81
2023-02-25T05:09:03.955Z,100495.81
2023-02-25T05:11:33.683Z,100506.22
2023-02-25T05:14:03.534Z,100483.88
2023-02-25T05:16:32.952Z,100513.25
2023-02-25T05:19:20.990Z,100514.13
2023-02-25T05:21:50.522Z,100483.91
2023-02-25T05:24:18.881Z,100522.13
2023-02-25T05:26:48.796Z,100496.84
2023-02-25T05:29:18.311Z,100517.78
2023-02-25T05:31:55.488Z,100509.88
2023-02-25T05:34:25.066Z,100547.13
2023-02-25T05:36:58.212Z,100547.22
2023-02-25T05:39:26.574Z,100553.31
2023-02-25T05:41:58.016Z,100524.84
2023-02-25T05:44:29.650Z,100566.53
2023-02-25T05:46:58.950Z,100547.59
2023-02-25T05:49:27.325Z,100571.03
2023-02-25T05:51:55.551Z,100577.16
2023-02-25T05:54:24.868Z,100550.22
2023-02-25T05:56:53.948Z,100564.13
2023-02-25T05:59:26.200Z,100542.31
2023-02-25T06:02:08.567Z,100593.50
2023-02-25T06:04:41.833Z,100598.69
2023-02-25T06:07:10.586Z,100564.97
2023-02-25T06:09:40.121Z,100602.19
2023-02-25T06:12:09.048Z,100600.50
2023-02-25T06:14:39.692Z,100625.66
2023-02-25T06:17:12.146Z,100618.78
2023-02-25T06:19:41.734Z,100603.09
2023-02-25T06:22:14.989Z,100630.91
2023-02-25T06:24:45.099Z,100591.03
2023-02-25T06:27:17.043Z,100620.56
2023-02-25T06:29:50.340Z,100634.38
2023-02-25T06:32:20.159Z,100631.09
2023-02-25T06:34:49.143Z,100651.94
2023-02-25T06:37:18.335Z,100666.66
2023-02-25T06:39:53.540Z,100655.50
2023-02-25T06:42:32.204Z,100655.56
2023-02-25T06:45:05.937Z,100668.66
2023-02-25T06:47:40.132Z,100681.69
2023-02-25T06:50:14.565Z,100654.88
2023-02-25T06:57:20.097Z,100679.31
2023-02-25T06:59:51.470Z,100679.50
2023-02-25T07:02:21.309Z,100657.84
2023-02-25T07:04:52.237Z,100697.00
2023-02-25T07:07:22.990Z,100688.34
2023-02-25T07:09:51.740Z,100708.34
2023-02-25T07:12:22.509Z,100685.81
2023-02-25T07:14:55.886Z,100709.22
2023-02-25T07:17:26.757Z,100688.47
2023-02-25T07:20:03.008Z,100705.78
2023-02-25T07:22:38.455Z,100701.47
2023-02-25T07:25:08.293Z,100692.81
2023-02-25T07:27:42.418Z,100710.97
2023-02-25T07:30:13.921Z,100695.34
2023-02-25T07:32:45.740Z,100692.78
2023-02-25T07:35:15.442Z,100692.75
2023-02-25T07:37:47.109Z,100740.47
2023-02-25T07:40:16.817Z,100712.63
2023-02-25T07:42:45.145Z,100725.63
2023-02-25T07:45:13.808Z,100744.72
2023-02-25T07:47:42.280Z,100755.97
2023-02-25T07:50:14.096Z,100734.22
2023-02-25T07:52:43.277Z,100739.44
2023-02-25T07:55:14.342Z,100762.91
2023-02-25T07:57:42.807Z,100756.75
2023-02-25T08:00:12.170Z,100761.19
2023-02-25T08:02:41.507Z,100784.66
2023-02-25T08:05:12.411Z,100765.44
2023-02-25T08:07:40.746Z,100759.00
2023-02-25T08:10:11.479Z,100800.22
2023-02-25T08:12:41.058Z,100761.00
2023-02-25T08:15:12.132Z,100801.69
2023-02-25T08:17:41.502Z,100808.53
2023-02-25T08:20:17.454Z,100837.59
2023-02-25T08:22:46.219Z,100908.66
2023-02-25T08:25:14.381Z,100937.69
2023-02-25T08:27:44.382Z,100944.19
2023-02-25T08:30:29.484Z,100980.50
2023-02-25T08:32:58.065Z,101030.66
2023-02-25T08:35:28.149Z,101013.06
2023-02-25T08:37:56.652Z,101012.56
2023-02-25T08:40:25.174Z,101001.28
2023-02-25T08:42:53.254Z,101009.97
2023-02-25T08:45:22.189Z,101016.69
2023-02-25T08:47:56.366Z,101027.88
2023-02-25T08:50:26.967Z,101048.81
2023-02-25T08:52:57.955Z,101066.31
2023-02-25T08:55:28.806Z,101067.28
2023-02-25T08:58:07.006Z,101118.53
2023-02-25T09:00:42.519Z,101125.94
2023-02-25T09:03:10.882Z,101136.13
2023-02-25T09:05:40.090Z,101173.91
2023-02-25T09:08:10.814Z,101179.84
2023-02-25T09:10:50.140Z,101154.44
2023-02-25T09:13:18.881Z,101201.75
2023-02-25T09:15:46.868Z,101190.56
2023-02-25T09:18:15.170Z,101217.63
2023-02-25T09:20:43.216Z,101216.66
2023-02-25T09:23:17.042Z,101215.31
2023-02-25T09:25:48.739Z,101190.25
2023-02-25T09:28:20.259Z,101196.47
2023-02-25T09:30:49.024Z,101223.94
2023-02-25T09:33:18.953Z,101239.19
2023-02-25T09:35:47.185Z,101225.81
2023-02-25T09:38:27.424Z,101208.41
2023-02-25T09:40:55.494Z,101205.22
2023-02-25T09:44:14.998Z,101199.22
2023-02-25T09:46:50.575Z,101218.22
2023-02-25T09:49:26.144Z,101240.41
2023-02-25T09:52:02.696Z,101232.75
2023-02-25T09:54:39.533Z,101208.03
2023-02-25T09:57:08.898Z,101245.53
2023-02-25T09:59:40.266Z,101252.78
2023-02-25T10:02:29.418Z,101249.22
2023-02-25T10:05:14.781Z,101207.88
2023-02-25T10:08:00.163Z,101230.50
2023-02-25T10:10:38.160Z,101018.78
2023-02-25T10:13:18.687Z,100384.69
2023-02-25T10:15:58.599Z,100304.19
2023-02-25T10:18:40.167Z,100231.44
2023-02-25T10:21:36.262Z,100236.16
2023-02-25T10:24:35.809Z,100440.53
2023-02-25T10:27:37.153Z,100542.19
2023-02-25T10:30:15.258Z,100668.81
2023-02-25T10:32:46.271Z,100713.41
2023-02-25T10:35:21.432Z,100743.09
2023-02-25T10:37:50.134Z,100755.47
2023-02-25T10:40:21.659Z,100775.69
2023-02-25T10:42:54.344Z,100774.94
2023-02-25T10:45:35.337Z,100738.59
2023-02-25T10:48:24.277Z,100716.75
2023-02-25T10:51:17.592Z,100711.66
2023-02-25T10:54:30.119Z,100733.25
2023-02-25T10:57:26.280Z,100730.13
2023-02-25T11:00:07.899Z,100691.88
2023-02-25T11:02:44.915Z,100680.25
2023-02-25T11:06:03.944Z,100711.81
2023-02-25T11:08:38.696Z,100680.41
2023-02-25T11:11:20.300Z,100674.59
2023-02-25T11:14:06.242Z,100676.66
2023-02-25T11:16:37.563Z,100675.59
2023-02-25T11:19:17.071Z,100682.56
2023-02-25T11:21:45.964Z,100686.03
2023-02-25T11:24:20.155Z,100671.75
2023-02-25T11:26:53.368Z,100686.69
2023-02-25T11:29:31.893Z,100694.00
2023-02-25T11:32:12.522Z,100655.59
2023-02-25T11:34:50.537Z,100726.66
2023-02-25T11:37:26.636Z,100691.22
2023-02-25T11:39:59.532Z,100641.81
2023-02-25T11:42:31.445Z,100656.22
2023-02-25T11:45:05.770Z,100675.06
2023-02-25T11:47:35.799Z,100675.06
2023-02-25T11:50:23.920Z,100674.09
2023-02-25T11:52:58.970Z,100701.22
2023-02-25T11:55:44.370Z,100689.06
2023-02-25T11:58:25.051Z,100733.56
2023-02-25T12:01:01.304Z,100701.38
2023-02-25T12:04:06.200Z,100721.84
2023-02-25T12:07:12.992Z,100689.59
2023-02-25T12:10:16.833Z,100715.09
2023-02-25T12:13:26.023Z,100714.97
2023-02-25T12:16:19.465Z,100714.88
2023-02-25T12:19:21.624Z,100686.38
2023-02-25T12:22:15.033Z,100686.22
2023-02-25T12:24:59.920Z,100760.50
2023-02-25T12:27:55.655Z,100727.94
2023-02-25T12:31:00.296Z,100713.72
2023-02-25T12:33:49.044Z,100692.00
2023-02-25T12:36:34.040Z,100696.53
2023-02-25T12:39:33.857Z,100695.47
2023-02-25T12:42:26.662Z,100707.38
2023-02-25T12:45:34.966Z,100713.13
2023-02-25T12:48:27.092Z,100705.72
2023-02-25T12:51:22.202Z,100664.19
2023-02-25T12:54:03.556Z,100723.91
2023-02-25T12:57:04.444Z,100733.72
2023-02-25T12:59:50.589Z,100662.34
2023-02-25T13:02:55.241Z,100659.75
2023-02-25T13:05:33.349Z,100706.38
2023-02-25T13:08:37.897Z,100686.94
2023-02-25T13:11:16.187Z,100731.34
2023-02-25T13:14:22.412Z,100734.19
2023-02-25T13:17:18.156Z,100701.09
2023-02-25T13:20:02.180Z,100652.41
2023-02-25T13:22:45.298Z,100686.28
2023-02-25T13:25:19.745Z,100669.69
2023-02-25T13:28:01.959Z,100682.66
2023-02-25T13:30:48.046Z,100705.44
2023-02-25T13:33:29.708Z,100785.25
2023-02-25T13:36:09.875Z,100793.16
2023-02-25T13:38:53.443Z,100701.88
2023-02-25T13:41:40.056Z,100648.59
2023-02-25T13:44:28.478Z,100719.59
2023-02-25T13:47:24.465Z,100693.19
2023-02-25T13:50:22.584Z,100697.97
2023-02-25T13:53:12.589Z,100712.69
2023-02-25T13:56:03.766Z,100731.06
2023-02-25T13:58:40.283Z,100707.00
2023-02-25T14:01:28.320Z,100722.84
2023-02-25T14:04:35.164Z,100749.94
2023-02-25T14:07:48.607Z,100735.69
2023-02-25T14:10:34.524Z,100692.66
2023-02-25T14:13:39.559Z,100723.22
2023-02-25T14:16:19.811Z,100754.22
2023-02-25T14:19:02.910Z,100768.22
2023-02-25T14:22:16.523Z,100768.81
2023-02-25T14:24:53.139Z,100732.91
2023-02-25T14:27:30.750Z,100778.63
2023-02-25T14:30:16.218Z,100722.84
2023-02-25T14:32:56.042Z,100788.53
2023-02-25T14:35:44.298Z,100797.69
2023-02-25T14:38:15.020Z,100794.94
2023-02-25T14:40:50.530Z,100754.44
2023-02-25T14:43:32.309Z,100793.03
2023-02-25T14:46:11.582Z,100792.56
2023-02-25T14:48:47.250Z,100779.50
2023-02-25T14:51:44.230Z,100769.28
2023-02-25T14:54:48.081Z,100723.03
2023-02-25T14:57:49.467Z,100692.31
2023-02-25T15:00:57.213Z,100680.81
2023-02-25T15:03:52.584Z,100683.31
2023-02-25T15:06:41.530Z,100671.56
2023-02-25T15:09:44.384Z,100684.69
2023-02-25T15:12:30.657Z,100717.09
2023-02-25T15:15:31.907Z,100712.13
2023-02-25T15:18:46.260Z,100701.28
2023-02-25T15:21:48.379Z,100739.25
2023-02-25T15:24:38.526Z,100780.44
2023-02-25T15:27:42.272Z,100793.47
2023-02-25T15:30:13.948Z,100774.66
2023-02-25T15:33:06.011Z,100759.84
2023-02-25T15:35:55.838Z,100736.41
2023-02-25T15:38:42.257Z,100748.16
2023-02-25T15:41:46.589Z,100752.94
2023-02-25T15:44:45.829Z,100748.63
2023-02-25T15:47:29.765Z,100775.34
2023-02-25T15:50:02.020Z,100741.78
2023-02-25T15:52:59.367Z,100768.84
2023-02-25T15:55:47.186Z,100761.25
2023-02-25T15:58:45.202Z,100769.38
2023-02-25T16:01:42.403Z,100774.75
2023-02-25T16:04:48.912Z,100781.97
2023-02-25T16:07:21.430Z,100776.91
2023-02-25T16:09:59.377Z,100762.31
2023-02-25T16:12:30.823Z,100784.88
2023-02-25T16:15:00.830Z,100791.19
2023-02-25T16:17:34.328Z,100791.34
2023-02-25T16:20:16.250Z,100790.63
2023-02-25T16:22:47.480Z,100797.72
2023-02-25T16:25:21.691Z,100818.47
2023-02-25T16:28:00.141Z,100815.75
2023-02-25T16:30:37.369Z,100840.25
2023-02-25T16:33:22.243Z,100864.06
2023-02-25T16:36:06.837Z,100860.72
2023-02-25T16:38:43.154Z,100856.53
2023-02-25T16:41:14.043Z,100854.16
2023-02-25T16:43:45.779Z,100854.19
2023-02-25T16:46:17.994Z,100853.41
2023-02-25T16:48:51.639Z,100852.63
2023-02-25T16:51:25.665Z,100840.50
2023-02-25T16:54:02.161Z,100835.38
2023-02-25T16:56:33.782Z,100811.06
2023-02-25T16:59:19.506Z,100742.28
2023-02-25T17:01:55.413Z,100705.56
2023-02-25T17:04:27.783Z,100708.22
2023-02-25T17:07:12.403Z,100680.31
2023-02-25T17:09:45.840Z,100661.19
2023-02-25T17:12:19.882Z,100650.81
2023-02-25T17:15:04.165Z,100653.69
2023-02-25T17:17:36.828Z,100645.19
2023-02-25T17:20:09.833Z,100614.56
2023-02-25T17:22:40.169Z,100624.44
2023-02-25T17:25:14.632Z,100660.31
2023-02-25T17:27:44.103Z,100678.69
2023-02-25T17:30:37.485Z,100760.63
2023-02-25T17:33:06.571Z,100745.03
2023-02-25T17:35:38.095Z,100688.53
2023-02-25T17:38:07.780Z,100718.81
2023-02-25T17:40:39.333Z,100727.56
2023-02-25T17:43:21.553Z,100746.75
2023-02-25T17:45:55.036Z,100746.78
2023-02-25T17:48:25.062Z,100688.59
2023-02-25T17:50:55.567Z,100667.72
2023-02-25T17:53:45.003Z,100626.84
2023-02-25T17:56:17.112Z,100644.31
2023-02-25T17:58:46.249Z,100583.41
2023-02-25T18:01:26.351Z,100559.97
2023-02-25T18:03:54.994Z,100502.78
2023-02-25T18:06:39.101Z,100425.47
2023-02-25T18:09:07.673Z,100390.72
2023-02-25T18:11:38.959Z,100365.44
2023-02-25T18:14:26.617Z,100333.22
2023-02-25T18:16:56.537Z,100340.94
2023-02-25T18:19:46.666Z,100358.41
2023-02-25T18:22:38.696Z,100350.38
2023-02-25T18:25:09.182Z,100408.69
2023-02-25T18:27:37.866Z,100370.41
2023-02-25T18:30:21.055Z,100389.72
2023-02-25T18:32:50.303Z,100514.66
2023-02-25T18:35:19.101Z,100637.41
2023-02-25T18:37:49.955Z,100631.44
2023-02-25T18:40:22.278Z,100633.25
2023-02-25T18:42:52.420Z,100638.47
2023-02-25T18:45:22.452Z,100668.09
2023-02-25T18:47:53.020Z,100670.66
2023-02-25T18:50:21.965Z,100801.09
2023-02-25T18:52:52.591Z,100939.47
2023-02-25T18:55:25.400Z,101010.00
2023-02-25T18:57:53.997Z,101034.38
2023-02-25T19:00:35.468Z,101057.88
2023-02-25T19:03:09.494Z,100965.56
2023-02-25T19:05:39.200Z,100845.47
2023-02-25T19:08:15.059Z,100822.03
2023-02-25T19:10:49.184Z,100763.72
2023-02-25T19:13:21.166Z,100808.06
2023-02-25T19:15:57.154Z,100773.25
2023-02-25T19:18:30.337Z,100774.16
2023-02-25T19:21:07.875Z,100774.97
2023-02-25T19:23:36.463Z,100754.09
2023-02-25T19:26:14.982Z,100712.41
2023-02-25T19:28:51.243Z,100677.63
2023-02-25T19:31:23.114Z,100644.53
2023-02-25T19:33:57.728Z,100638.47
2023-02-25T19:36:28.469Z,100693.22
2023-02-25T19:38:57.152Z,100762.00
2023-02-25T19:41:26.929Z,100883.75
2023-02-25T19:43:59.923Z,101000.41
2023-02-25T19:46:33.893Z,101003.00
2023-02-25T19:49:06.696Z,101090.13
2023-02-25T19:51:39.316Z,101098.81
2023-02-25T19:54:08.720Z,101097.94
2023-02-25T19:56:40.804Z,101151.03
2023-02-25T19:59:11.872Z,101205.97
2023-02-25T20:01:41.210Z,101148.44
2023-02-25T20:04:13.829Z,101206.78
2023-02-25T20:06:48.781Z,101185.84
2023-02-25T20:09:17.017Z,101173.66
2023-02-25T20:11:46.831Z,101233.81
2023-02-25T20:14:15.227Z,101274.78
2023-02-25T20:16:44.356Z,101275.63
2023-02-25T20:19:13.873Z,101251.28
2023-02-25T20:21:42.082Z,101273.94
2023-02-25T20:24:11.310Z,101327.16
2023-02-25T20:26:39.264Z,101334.97
2023-02-25T20:29:07.462Z,101334.88
2023-02-25T20:31:35.944Z,101306.13
2023-02-25T20:34:05.816Z,101292.16
2023-02-25T20:36:42.477Z,101290.41
2023-02-25T20:39:32.954Z,101265.06
2023-02-25T20:42:04.512Z,101237.16
2023-02-25T20:44:33.308Z,101239.88
2023-02-25T20:47:03.826Z,101273.91
2023-02-25T20:49:32.867Z,101279.16
2023-02-25T20:52:07.199Z,101301.84
2023-02-25T20:54:36.008Z,101335.91
2023-02-25T20:57:07.680Z,101348.13
2023-02-25T20:59:35.922Z,101320.16
2023-02-25T21:02:04.611Z,101304.47
2023-02-25T21:04:38.036Z,101306.19
2023-02-25T21:07:13.010Z,101303.59
2023-02-25T21:09:45.143Z,101314.91
2023-02-25T21:12:13.463Z,101348.91
2023-02-25T21:14:41.480Z,101372.47
2023-02-25T21:17:13.802Z,101388.22
2023-02-25T21:19:43.158Z,101367.16
2023-02-25T21:22:28.228Z,101380.16
2023-02-25T21:24:57.835Z,101395.84
2023-02-25T21:27:30.575Z,101384.44
2023-02-25T21:30:01.650Z,101374.81
2023-02-25T21:32:44.774Z,101393.97
2023-02-25T21:35:15.147Z,101366.94
2023-02-25T21:37:51.300Z,101396.50
2023-02-25T21:40:22.064Z,101387.78
2023-02-25T21:42:51.395Z,101413.97
2023-02-25T21:45:24.343Z,101420.06
2023-02-25T21:47:52.620Z,101403.38
2023-02-25T21:50:20.947Z,101368.44
2023-02-25T21:52:51.213Z,101320.41
2023-02-25T21:55:22.141Z,101263.94
2023-02-25T21:57:50.548Z,101301.13
2023-02-25T22:00:19.806Z,101153.03
2023-02-25T22:02:49.149Z,101027.06
2023-02-25T22:05:17.583Z,101027.16
2023-02-25T22:07:45.617Z,101055.84
2023-02-25T22:10:16.315Z,101058.44
2023-02-25T22:12:44.340Z,101038.44
2023-02-25T22:15:15.091Z,100991.50
2023-02-25T22:17:43.286Z,100979.28
2023-02-25T22:20:13.237Z,100948.84
2023-02-25T22:22:44.376Z,100920.25
2023-02-25T22:25:12.856Z,100969.81
2023-02-25T22:27:43.532Z,100938.50
2023-02-25T22:30:13.758Z,100913.25
2023-02-25T22:32:42.991Z,100912.41
2023-02-25T22:35:11.546Z,101027.25
2023-02-25T22:37:43.367Z,101080.34
2023-02-25T22:40:12.570Z,101056.84
2023-02-25T22:42:45.459Z,101078.59
2023-02-25T22:45:17.462Z,101096.00
2023-02-25T22:47:45.557Z,101145.59
2023-02-25T22:50:13.570Z,101152.53
2023-02-25T22:52:42.812Z,101159.41
2023-02-25T22:55:14.813Z,101218.66
2023-02-25T22:57:46.554Z,101235.91
2023-02-25T23:00:17.025Z,101272.53
2023-02-25T23:02:45.233Z,101289.03
2023-02-25T23:05:13.870Z,101308.13
2023-02-25T23:07:42.373Z,101287.16
2023-02-25T23:10:17.791Z,101296.72
2023-02-25T23:12:48.559Z,101376.63
2023-02-25T23:15:17.737Z,101434.25
2023-02-25T23:17:56.401Z,101441.81
2023-02-25T23:20:28.405Z,101475.88
2023-02-25T23:23:03.945Z,101483.81
2023-02-25T23:25:33.242Z,101490.56
2023-02-25T23:28:05.684Z,101470.38
2023-02-25T23:30:36.889Z,101494.78
2023-02-25T23:33:05.262Z,101508.72
2023-02-25T23:35:42.021Z,101492.78
2023-02-25T23:38:11.717Z,101475.13
2023-02-25T23:41:02.499Z,101497.09
2023-02-25T23:43:33.909Z,101523.22
2023-02-25T23:46:03.960Z,101480.44
2023-02-25T23:48:33.409Z,101476.66
2023-02-25T23:51:05.790Z,101475.00
2023-02-25T23:53:33.965Z,101421.03
2023-02-25T23:56:07.350Z,101438.13
2023-02-25T23:58:40.461Z,101405.66
